Terminal Aerodrome Forecast
Issued by NWS Tulsa, OK

Home | Current Version | Previous Version | Text Only | Print | Product List | Glossary On
Versions: 1 2 3 4 5 6 7 8 9 10 11 12 13
115
FTUS44 KTSA 301129
TAFFSM
TAF
KFSM 301129Z 3012/3112 08003KT P6SM VCSH OVC120
      TEMPO 3014/3018 5SM -TSRA BKN030CB
     FM301800 12006KT P6SM VCTS BKN040CB
     FM310200 08004KT P6SM BKN250=

USA.gov is the U.S. government's official web portal to all federal, state and local government web resources and services.